sensor_id;sensor_type;location;lat;lon;timestamp;P1;durP1;ratioP1;P2;durP2;ratioP2
49502;SDS011;35409;48.776;9.204;2022-11-06T00:01:23;28.92;;;18.02;;
49502;SDS011;35409;48.776;9.204;2022-11-06T00:03:50;32.30;;;18.73;;
49502;SDS011;35409;48.776;9.204;2022-11-06T00:06:17;33.08;;;17.98;;
49502;SDS011;35409;48.776;9.204;2022-11-06T00:09:04;31.98;;;19.15;;
49502;SDS011;35409;48.776;9.204;2022-11-06T00:11:31;32.30;;;19.00;;
49502;SDS011;35409;48.776;9.204;2022-11-06T00:13:58;37.47;;;19.70;;
49502;SDS011;35409;48.776;9.204;2022-11-06T00:16:25;31.15;;;19.17;;
49502;SDS011;35409;48.776;9.204;2022-11-06T00:18:50;35.75;;;21.65;;
49502;SDS011;35409;48.776;9.204;2022-11-06T00:21:26;37.15;;;21.98;;
49502;SDS011;35409;48.776;9.204;2022-11-06T00:23:53;40.33;;;21.42;;
49502;SDS011;35409;48.776;9.204;2022-11-06T00:26:21;38.58;;;20.88;;
49502;SDS011;35409;48.776;9.204;2022-11-06T00:28:48;33.00;;;19.17;;
49502;SDS011;35409;48.776;9.204;2022-11-06T00:31:15;41.15;;;21.27;;
49502;SDS011;35409;48.776;9.204;2022-11-06T00:33:45;37.92;;;21.02;;
49502;SDS011;35409;48.776;9.204;2022-11-06T00:36:13;42.35;;;22.00;;
49502;SDS011;35409;48.776;9.204;2022-11-06T00:38:40;37.55;;;20.67;;
49502;SDS011;35409;48.776;9.204;2022-11-06T00:41:10;32.53;;;19.65;;
49502;SDS011;35409;48.776;9.204;2022-11-06T00:43:37;34.90;;;19.85;;
49502;SDS011;35409;48.776;9.204;2022-11-06T00:46:07;36.85;;;20.75;;
49502;SDS011;35409;48.776;9.204;2022-11-06T00:48:35;35.55;;;19.30;;
49502;SDS011;35409;48.776;9.204;2022-11-06T00:51:02;41.55;;;22.25;;
49502;SDS011;35409;48.776;9.204;2022-11-06T00:53:27;35.22;;;20.70;;
49502;SDS011;35409;48.776;9.204;2022-11-06T00:55:53;37.60;;;22.95;;
49502;SDS011;35409;48.776;9.204;2022-11-06T00:58:19;36.47;;;20.75;;
49502;SDS011;35409;48.776;9.204;2022-11-06T01:00:44;37.38;;;21.15;;
49502;SDS011;35409;48.776;9.204;2022-11-06T01:03:10;36.05;;;20.67;;
49502;SDS011;35409;48.776;9.204;2022-11-06T01:05:35;45.97;;;20.95;;
49502;SDS011;35409;48.776;9.204;2022-11-06T01:08:01;40.28;;;20.55;;
49502;SDS011;35409;48.776;9.204;2022-11-06T01:10:26;46.58;;;21.70;;
49502;SDS011;35409;48.776;9.204;2022-11-06T01:12:52;41.20;;;19.67;;
49502;SDS011;35409;48.776;9.204;2022-11-06T01:15:17;34.60;;;19.25;;
49502;SDS011;35409;48.776;9.204;2022-11-06T01:17:43;38.78;;;18.73;;
49502;SDS011;35409;48.776;9.204;2022-11-06T01:20:09;40.67;;;20.00;;
49502;SDS011;35409;48.776;9.204;2022-11-06T01:22:35;31.52;;;17.33;;
49502;SDS011;35409;48.776;9.204;2022-11-06T01:25:00;32.10;;;18.65;;
49502;SDS011;35409;48.776;9.204;2022-11-06T01:27:26;29.70;;;17.33;;
49502;SDS011;35409;48.776;9.204;2022-11-06T01:29:52;27.63;;;17.08;;
49502;SDS011;35409;48.776;9.204;2022-11-06T01:32:18;29.85;;;16.67;;
49502;SDS011;35409;48.776;9.204;2022-11-06T01:34:44;31.88;;;18.15;;
49502;SDS011;35409;48.776;9.204;2022-11-06T01:37:10;44.65;;;20.05;;
49502;SDS011;35409;48.776;9.204;2022-11-06T01:39:36;37.40;;;19.20;;
49502;SDS011;35409;48.776;9.204;2022-11-06T01:42:03;38.92;;;19.52;;
49502;SDS011;35409;48.776;9.204;2022-11-06T01:47:01;39.17;;;19.45;;
49502;SDS011;35409;48.776;9.204;2022-11-06T01:49:31;28.95;;;17.00;;
49502;SDS011;35409;48.776;9.204;2022-11-06T01:52:05;29.98;;;16.27;;
49502;SDS011;35409;48.776;9.204;2022-11-06T01:54:33;29.00;;;16.90;;
49502;SDS011;35409;48.776;9.204;2022-11-06T01:56:59;28.80;;;16.17;;
49502;SDS011;35409;48.776;9.204;2022-11-06T01:59:26;28.00;;;16.17;;
49502;SDS011;35409;48.776;9.204;2022-11-06T02:01:54;35.30;;;16.98;;
49502;SDS011;35409;48.776;9.204;2022-11-06T02:04:24;27.63;;;17.15;;
49502;SDS011;35409;48.776;9.204;2022-11-06T02:06:50;31.70;;;17.05;;
49502;SDS011;35409;48.776;9.204;2022-11-06T02:09:17;38.75;;;18.38;;
49502;SDS011;35409;48.776;9.204;2022-11-06T02:11:44;35.90;;;18.20;;
49502;SDS011;35409;48.776;9.204;2022-11-06T02:14:23;36.50;;;17.63;;
49502;SDS011;35409;48.776;9.204;2022-11-06T02:19:38;32.75;;;16.45;;
49502;SDS011;35409;48.776;9.204;2022-11-06T02:27:21;28.88;;;16.77;;
49502;SDS011;35409;48.776;9.204;2022-11-06T02:32:21;29.77;;;16.83;;
49502;SDS011;35409;48.776;9.204;2022-11-06T02:34:57;32.47;;;16.75;;
49502;SDS011;35409;48.776;9.204;2022-11-06T02:37:27;27.15;;;15.48;;
49502;SDS011;35409;48.776;9.204;2022-11-06T02:39:56;27.92;;;16.35;;
49502;SDS011;35409;48.776;9.204;2022-11-06T02:42:25;30.70;;;16.42;;
49502;SDS011;35409;48.776;9.204;2022-11-06T02:44:53;31.17;;;15.55;;
49502;SDS011;35409;48.776;9.204;2022-11-06T02:47:21;33.05;;;16.30;;
49502;SDS011;35409;48.776;9.204;2022-11-06T02:49:50;29.45;;;16.20;;
49502;SDS011;35409;48.776;9.204;2022-11-06T02:52:21;28.88;;;16.33;;
49502;SDS011;35409;48.776;9.204;2022-11-06T02:54:59;39.13;;;17.92;;
49502;SDS011;35409;48.776;9.204;2022-11-06T02:57:30;32.00;;;17.13;;
49502;SDS011;35409;48.776;9.204;2022-11-06T03:02:32;33.50;;;17.83;;
49502;SDS011;35409;48.776;9.204;2022-11-06T03:08:12;29.70;;;16.70;;
49502;SDS011;35409;48.776;9.204;2022-11-06T03:10:49;34.85;;;17.42;;
49502;SDS011;35409;48.776;9.204;2022-11-06T03:13:35;33.70;;;17.35;;
49502;SDS011;35409;48.776;9.204;2022-11-06T03:16:16;32.80;;;17.25;;
49502;SDS011;35409;48.776;9.204;2022-11-06T03:22:12;37.35;;;17.88;;
49502;SDS011;35409;48.776;9.204;2022-11-06T03:25:04;31.95;;;16.60;;
49502;SDS011;35409;48.776;9.204;2022-11-06T03:27:41;30.55;;;17.10;;
49502;SDS011;35409;48.776;9.204;2022-11-06T03:30:19;29.70;;;16.88;;
49502;SDS011;35409;48.776;9.204;2022-11-06T03:32:46;34.65;;;19.73;;
49502;SDS011;35409;48.776;9.204;2022-11-06T03:38:08;34.78;;;18.98;;
49502;SDS011;35409;48.776;9.204;2022-11-06T03:40:40;36.58;;;19.35;;
49502;SDS011;35409;48.776;9.204;2022-11-06T03:43:10;36.10;;;18.45;;
49502;SDS011;35409;48.776;9.204;2022-11-06T03:45:39;32.95;;;18.70;;
49502;SDS011;35409;48.776;9.204;2022-11-06T03:48:09;33.78;;;18.73;;
49502;SDS011;35409;48.776;9.204;2022-11-06T03:51:01;33.17;;;19.23;;
49502;SDS011;35409;48.776;9.204;2022-11-06T03:53:30;38.05;;;19.13;;
49502;SDS011;35409;48.776;9.204;2022-11-06T03:56:06;30.67;;;17.75;;
49502;SDS011;35409;48.776;9.204;2022-11-06T03:58:37;30.75;;;18.08;;
49502;SDS011;35409;48.776;9.204;2022-11-06T04:01:03;30.48;;;17.80;;
49502;SDS011;35409;48.776;9.204;2022-11-06T04:06:10;31.70;;;18.50;;
49502;SDS011;35409;48.776;9.204;2022-11-06T04:08:37;31.45;;;18.00;;
49502;SDS011;35409;48.776;9.204;2022-11-06T04:11:29;33.53;;;19.10;;
49502;SDS011;35409;48.776;9.204;2022-11-06T04:14:17;35.83;;;19.27;;
49502;SDS011;35409;48.776;9.204;2022-11-06T04:16:46;33.00;;;18.42;;
49502;SDS011;35409;48.776;9.204;2022-11-06T04:19:15;36.95;;;18.85;;
49502;SDS011;35409;48.776;9.204;2022-11-06T04:24:25;36.10;;;19.33;;
49502;SDS011;35409;48.776;9.204;2022-11-06T04:35:29;40.90;;;19.75;;
49502;SDS011;35409;48.776;9.204;2022-11-06T04:38:02;33.83;;;18.88;;
49502;SDS011;35409;48.776;9.204;2022-11-06T04:41:02;36.72;;;19.33;;
49502;SDS011;35409;48.776;9.204;2022-11-06T04:43:41;35.50;;;19.90;;
49502;SDS011;35409;48.776;9.204;2022-11-06T04:46:16;32.35;;;18.90;;
49502;SDS011;35409;48.776;9.204;2022-11-06T04:48:47;35.10;;;19.00;;
49502;SDS011;35409;48.776;9.204;2022-11-06T04:51:14;32.58;;;18.73;;
49502;SDS011;35409;48.776;9.204;2022-11-06T04:53:41;33.85;;;18.27;;
49502;SDS011;35409;48.776;9.204;2022-11-06T04:56:08;30.52;;;16.70;;
49502;SDS011;35409;48.776;9.204;2022-11-06T04:58:36;32.50;;;18.25;;
49502;SDS011;35409;48.776;9.204;2022-11-06T05:01:02;30.33;;;16.48;;
49502;SDS011;35409;48.776;9.204;2022-11-06T05:03:28;34.60;;;17.35;;
49502;SDS011;35409;48.776;9.204;2022-11-06T05:05:54;33.78;;;18.90;;
49502;SDS011;35409;48.776;9.204;2022-11-06T05:08:19;33.28;;;17.48;;
49502;SDS011;35409;48.776;9.204;2022-11-06T05:10:45;35.50;;;18.75;;
49502;SDS011;35409;48.776;9.204;2022-11-06T05:13:11;37.58;;;19.15;;
49502;SDS011;35409;48.776;9.204;2022-11-06T05:15:38;38.67;;;19.85;;
49502;SDS011;35409;48.776;9.204;2022-11-06T05:18:04;38.05;;;19.73;;
49502;SDS011;35409;48.776;9.204;2022-11-06T05:20:30;38.15;;;19.90;;
49502;SDS011;35409;48.776;9.204;2022-11-06T05:22:56;38.78;;;19.02;;
49502;SDS011;35409;48.776;9.204;2022-11-06T05:25:22;39.20;;;20.90;;
49502;SDS011;35409;48.776;9.204;2022-11-06T05:27:48;41.60;;;20.30;;
49502;SDS011;35409;48.776;9.204;2022-11-06T05:30:14;39.22;;;19.48;;
49502;SDS011;35409;48.776;9.204;2022-11-06T05:32:40;33.75;;;18.30;;
49502;SDS011;35409;48.776;9.204;2022-11-06T05:35:06;37.28;;;18.52;;
49502;SDS011;35409;48.776;9.204;2022-11-06T05:37:32;34.67;;;19.27;;
49502;SDS011;35409;48.776;9.204;2022-11-06T05:39:57;33.33;;;19.92;;
49502;SDS011;35409;48.776;9.204;2022-11-06T05:42:23;41.80;;;20.92;;
49502;SDS011;35409;48.776;9.204;2022-11-06T05:44:48;38.97;;;20.75;;
49502;SDS011;35409;48.776;9.204;2022-11-06T05:47:14;42.25;;;21.15;;
49502;SDS011;35409;48.776;9.204;2022-11-06T05:49:40;39.08;;;19.38;;
49502;SDS011;35409;48.776;9.204;2022-11-06T05:52:05;42.70;;;20.75;;
49502;SDS011;35409;48.776;9.204;2022-11-06T05:54:31;41.10;;;21.33;;
49502;SDS011;35409;48.776;9.204;2022-11-06T05:56:57;37.67;;;20.08;;
49502;SDS011;35409;48.776;9.204;2022-11-06T05:59:22;36.40;;;20.13;;
49502;SDS011;35409;48.776;9.204;2022-11-06T06:01:48;36.63;;;19.60;;
49502;SDS011;35409;48.776;9.204;2022-11-06T06:04:13;35.60;;;17.88;;
49502;SDS011;35409;48.776;9.204;2022-11-06T06:06:39;35.45;;;18.00;;
49502;SDS011;35409;48.776;9.204;2022-11-06T06:09:05;33.33;;;18.52;;
49502;SDS011;35409;48.776;9.204;2022-11-06T06:11:31;37.45;;;19.13;;
49502;SDS011;35409;48.776;9.204;2022-11-06T06:13:56;37.03;;;18.98;;
49502;SDS011;35409;48.776;9.204;2022-11-06T06:16:22;33.30;;;18.33;;
49502;SDS011;35409;48.776;9.204;2022-11-06T06:18:48;40.65;;;19.63;;
49502;SDS011;35409;48.776;9.204;2022-11-06T06:21:17;35.35;;;18.33;;
49502;SDS011;35409;48.776;9.204;2022-11-06T06:23:42;32.42;;;17.70;;
49502;SDS011;35409;48.776;9.204;2022-11-06T06:26:08;32.70;;;18.30;;
49502;SDS011;35409;48.776;9.204;2022-11-06T06:28:34;41.60;;;19.30;;
49502;SDS011;35409;48.776;9.204;2022-11-06T06:31:03;40.92;;;19.77;;
49502;SDS011;35409;48.776;9.204;2022-11-06T06:33:29;38.40;;;18.80;;
49502;SDS011;35409;48.776;9.204;2022-11-06T06:35:55;33.72;;;18.75;;
49502;SDS011;35409;48.776;9.204;2022-11-06T06:38:21;38.78;;;19.45;;
49502;SDS011;35409;48.776;9.204;2022-11-06T06:40:46;39.80;;;19.48;;
49502;SDS011;35409;48.776;9.204;2022-11-06T06:43:13;43.75;;;20.52;;
49502;SDS011;35409;48.776;9.204;2022-11-06T06:45:39;39.95;;;21.05;;
49502;SDS011;35409;48.776;9.204;2022-11-06T06:48:05;41.78;;;21.10;;
49502;SDS011;35409;48.776;9.204;2022-11-06T06:50:31;41.55;;;21.42;;
49502;SDS011;35409;48.776;9.204;2022-11-06T06:52:57;43.67;;;20.58;;
49502;SDS011;35409;48.776;9.204;2022-11-06T06:55:23;44.65;;;22.17;;
49502;SDS011;35409;48.776;9.204;2022-11-06T06:57:56;41.72;;;20.98;;
49502;SDS011;35409;48.776;9.204;2022-11-06T07:00:25;40.00;;;19.85;;
49502;SDS011;35409;48.776;9.204;2022-11-06T07:02:51;44.10;;;21.40;;
49502;SDS011;35409;48.776;9.204;2022-11-06T07:05:17;36.92;;;19.30;;
49502;SDS011;35409;48.776;9.204;2022-11-06T07:07:43;44.25;;;20.33;;
49502;SDS011;35409;48.776;9.204;2022-11-06T07:10:08;39.15;;;20.67;;
49502;SDS011;35409;48.776;9.204;2022-11-06T07:12:34;37.92;;;18.98;;
49502;SDS011;35409;48.776;9.204;2022-11-06T07:15:00;40.45;;;19.85;;
49502;SDS011;35409;48.776;9.204;2022-11-06T07:17:26;40.95;;;20.67;;
49502;SDS011;35409;48.776;9.204;2022-11-06T07:19:51;38.92;;;21.10;;
49502;SDS011;35409;48.776;9.204;2022-11-06T07:22:17;42.67;;;20.98;;
49502;SDS011;35409;48.776;9.204;2022-11-06T07:24:42;38.42;;;21.02;;
49502;SDS011;35409;48.776;9.204;2022-11-06T07:27:08;37.47;;;20.40;;
49502;SDS011;35409;48.776;9.204;2022-11-06T07:29:34;32.50;;;17.88;;
49502;SDS011;35409;48.776;9.204;2022-11-06T07:31:59;33.30;;;18.42;;
49502;SDS011;35409;48.776;9.204;2022-11-06T07:34:25;30.40;;;17.08;;
49502;SDS011;35409;48.776;9.204;2022-11-06T07:36:50;38.53;;;19.00;;
49502;SDS011;35409;48.776;9.204;2022-11-06T07:39:16;38.78;;;19.52;;
49502;SDS011;35409;48.776;9.204;2022-11-06T07:41:42;35.33;;;18.35;;
49502;SDS011;35409;48.776;9.204;2022-11-06T07:44:07;39.80;;;19.85;;
49502;SDS011;35409;48.776;9.204;2022-11-06T07:46:33;36.70;;;19.65;;
49502;SDS011;35409;48.776;9.204;2022-11-06T07:48:58;36.80;;;20.60;;
49502;SDS011;35409;48.776;9.204;2022-11-06T07:51:24;35.10;;;19.27;;
49502;SDS011;35409;48.776;9.204;2022-11-06T07:53:50;29.00;;;17.58;;
49502;SDS011;35409;48.776;9.204;2022-11-06T07:56:15;24.20;;;15.35;;
49502;SDS011;35409;48.776;9.204;2022-11-06T07:58:41;24.80;;;16.23;;
49502;SDS011;35409;48.776;9.204;2022-11-06T08:01:10;21.85;;;14.52;;
49502;SDS011;35409;48.776;9.204;2022-11-06T08:03:38;24.73;;;14.75;;
49502;SDS011;35409;48.776;9.204;2022-11-06T08:06:04;20.40;;;13.98;;
49502;SDS011;35409;48.776;9.204;2022-11-06T08:08:30;24.00;;;14.98;;
49502;SDS011;35409;48.776;9.204;2022-11-06T08:11:00;22.63;;;13.27;;
49502;SDS011;35409;48.776;9.204;2022-11-06T08:13:26;21.23;;;14.05;;
49502;SDS011;35409;48.776;9.204;2022-11-06T08:15:52;20.27;;;12.23;;
49502;SDS011;35409;48.776;9.204;2022-11-06T08:18:18;23.23;;;13.70;;
49502;SDS011;35409;48.776;9.204;2022-11-06T08:20:43;20.38;;;13.65;;
49502;SDS011;35409;48.776;9.204;2022-11-06T08:23:10;22.80;;;13.88;;
49502;SDS011;35409;48.776;9.204;2022-11-06T08:25:37;20.85;;;12.77;;
49502;SDS011;35409;48.776;9.204;2022-11-06T08:28:03;21.80;;;13.27;;
49502;SDS011;35409;48.776;9.204;2022-11-06T08:30:30;20.48;;;13.00;;
49502;SDS011;35409;48.776;9.204;2022-11-06T08:32:59;23.25;;;13.10;;
49502;SDS011;35409;48.776;9.204;2022-11-06T08:35:26;25.40;;;14.10;;
49502;SDS011;35409;48.776;9.204;2022-11-06T08:37:52;21.33;;;12.95;;
49502;SDS011;35409;48.776;9.204;2022-11-06T08:40:18;23.02;;;12.60;;
49502;SDS011;35409;48.776;9.204;2022-11-06T08:42:44;18.20;;;11.95;;
49502;SDS011;35409;48.776;9.204;2022-11-06T08:45:10;19.52;;;12.25;;
49502;SDS011;35409;48.776;9.204;2022-11-06T08:47:36;19.48;;;12.77;;
49502;SDS011;35409;48.776;9.204;2022-11-06T08:50:01;18.27;;;11.45;;
49502;SDS011;35409;48.776;9.204;2022-11-06T08:52:27;15.48;;;9.73;;
49502;SDS011;35409;48.776;9.204;2022-11-06T08:54:52;14.30;;;9.80;;
49502;SDS011;35409;48.776;9.204;2022-11-06T08:57:18;14.43;;;10.65;;
49502;SDS011;35409;48.776;9.204;2022-11-06T08:59:44;13.45;;;9.80;;
49502;SDS011;35409;48.776;9.204;2022-11-06T09:02:12;16.83;;;10.75;;
49502;SDS011;35409;48.776;9.204;2022-11-06T09:04:38;15.05;;;9.65;;
49502;SDS011;35409;48.776;9.204;2022-11-06T09:07:08;12.63;;;9.23;;
49502;SDS011;35409;48.776;9.204;2022-11-06T09:09:33;14.70;;;9.63;;
49502;SDS011;35409;48.776;9.204;2022-11-06T09:12:00;17.02;;;10.13;;
49502;SDS011;35409;48.776;9.204;2022-11-06T09:14:26;14.65;;;10.07;;
49502;SDS011;35409;48.776;9.204;2022-11-06T09:16:52;14.18;;;9.85;;
49502;SDS011;35409;48.776;9.204;2022-11-06T09:19:18;14.00;;;9.15;;
49502;SDS011;35409;48.776;9.204;2022-11-06T09:21:44;12.85;;;9.20;;
49502;SDS011;35409;48.776;9.204;2022-11-06T09:24:09;16.70;;;9.73;;
49502;SDS011;35409;48.776;9.204;2022-11-06T09:26:36;12.65;;;9.35;;
49502;SDS011;35409;48.776;9.204;2022-11-06T09:29:02;14.07;;;9.95;;
49502;SDS011;35409;48.776;9.204;2022-11-06T09:31:27;13.10;;;9.13;;
49502;SDS011;35409;48.776;9.204;2022-11-06T09:33:53;15.25;;;8.98;;
49502;SDS011;35409;48.776;9.204;2022-11-06T09:36:19;13.40;;;8.73;;
49502;SDS011;35409;48.776;9.204;2022-11-06T09:38:45;12.98;;;8.52;;
49502;SDS011;35409;48.776;9.204;2022-11-06T09:41:15;11.32;;;8.52;;
49502;SDS011;35409;48.776;9.204;2022-11-06T09:43:57;12.32;;;8.13;;
49502;SDS011;35409;48.776;9.204;2022-11-06T09:46:50;11.65;;;8.05;;
49502;SDS011;35409;48.776;9.204;2022-11-06T09:51:55;12.25;;;8.82;;
49502;SDS011;35409;48.776;9.204;2022-11-06T09:54:25;12.13;;;8.10;;
49502;SDS011;35409;48.776;9.204;2022-11-06T09:57:03;12.45;;;8.50;;
49502;SDS011;35409;48.776;9.204;2022-11-06T09:59:34;11.75;;;8.73;;
49502;SDS011;35409;48.776;9.204;2022-11-06T10:02:02;12.13;;;8.85;;
49502;SDS011;35409;48.776;9.204;2022-11-06T10:04:50;13.93;;;8.73;;
49502;SDS011;35409;48.776;9.204;2022-11-06T10:07:30;12.15;;;8.82;;
49502;SDS011;35409;48.776;9.204;2022-11-06T10:09:59;12.45;;;8.18;;
49502;SDS011;35409;48.776;9.204;2022-11-06T10:12:29;14.23;;;8.43;;
49502;SDS011;35409;48.776;9.204;2022-11-06T10:15:21;12.95;;;9.43;;
49502;SDS011;35409;48.776;9.204;2022-11-06T10:21:11;12.40;;;9.30;;
49502;SDS011;35409;48.776;9.204;2022-11-06T10:26:31;15.80;;;9.98;;
49502;SDS011;35409;48.776;9.204;2022-11-06T10:31:37;12.88;;;9.85;;
49502;SDS011;35409;48.776;9.204;2022-11-06T10:34:09;14.90;;;9.55;;
49502;SDS011;35409;48.776;9.204;2022-11-06T10:36:44;12.52;;;9.10;;
49502;SDS011;35409;48.776;9.204;2022-11-06T10:39:13;13.65;;;9.80;;
49502;SDS011;35409;48.776;9.204;2022-11-06T10:41:42;16.90;;;10.32;;
49502;SDS011;35409;48.776;9.204;2022-11-06T10:44:16;17.20;;;10.73;;
49502;SDS011;35409;48.776;9.204;2022-11-06T10:59:15;10.82;;;7.43;;
49502;SDS011;35409;48.776;9.204;2022-11-06T11:01:41;9.32;;;6.97;;
49502;SDS011;35409;48.776;9.204;2022-11-06T11:04:07;10.15;;;7.28;;
49502;SDS011;35409;48.776;9.204;2022-11-06T11:06:33;8.70;;;7.03;;
49502;SDS011;35409;48.776;9.204;2022-11-06T11:08:59;9.10;;;6.82;;
49502;SDS011;35409;48.776;9.204;2022-11-06T11:11:26;8.57;;;5.88;;
49502;SDS011;35409;48.776;9.204;2022-11-06T11:16:22;8.60;;;5.55;;
49502;SDS011;35409;48.776;9.204;2022-11-06T11:18:49;8.13;;;5.93;;
49502;SDS011;35409;48.776;9.204;2022-11-06T11:23:45;8.75;;;6.88;;
49502;SDS011;35409;48.776;9.204;2022-11-06T11:26:21;10.95;;;6.80;;
49502;SDS011;35409;48.776;9.204;2022-11-06T11:28:52;8.00;;;6.55;;
49502;SDS011;35409;48.776;9.204;2022-11-06T11:31:19;11.20;;;6.82;;
49502;SDS011;35409;48.776;9.204;2022-11-06T11:33:52;10.52;;;6.68;;
49502;SDS011;35409;48.776;9.204;2022-11-06T11:36:19;8.82;;;6.40;;
49502;SDS011;35409;48.776;9.204;2022-11-06T11:38:45;7.18;;;5.68;;
49502;SDS011;35409;48.776;9.204;2022-11-06T11:41:12;6.82;;;5.13;;
49502;SDS011;35409;48.776;9.204;2022-11-06T11:43:56;6.55;;;4.78;;
49502;SDS011;35409;48.776;9.204;2022-11-06T11:46:30;6.47;;;4.55;;
49502;SDS011;35409;48.776;9.204;2022-11-06T11:48:57;4.95;;;4.15;;
49502;SDS011;35409;48.776;9.204;2022-11-06T11:51:42;5.93;;;4.70;;
49502;SDS011;35409;48.776;9.204;2022-11-06T11:56:56;7.20;;;5.22;;
49502;SDS011;35409;48.776;9.204;2022-11-06T11:59:51;8.40;;;4.97;;
49502;SDS011;35409;48.776;9.204;2022-11-06T12:02:33;7.32;;;5.38;;
49502;SDS011;35409;48.776;9.204;2022-11-06T12:05:01;6.60;;;5.45;;
49502;SDS011;35409;48.776;9.204;2022-11-06T12:07:32;5.72;;;4.53;;
49502;SDS011;35409;48.776;9.204;2022-11-06T12:10:01;7.30;;;5.45;;
49502;SDS011;35409;48.776;9.204;2022-11-06T12:12:40;6.82;;;5.07;;
49502;SDS011;35409;48.776;9.204;2022-11-06T12:17:55;7.28;;;5.07;;
49502;SDS011;35409;48.776;9.204;2022-11-06T12:20:38;7.28;;;5.38;;
49502;SDS011;35409;48.776;9.204;2022-11-06T12:23:20;8.73;;;5.20;;
49502;SDS011;35409;48.776;9.204;2022-11-06T12:25:58;8.18;;;5.25;;
49502;SDS011;35409;48.776;9.204;2022-11-06T12:28:36;5.80;;;4.03;;
49502;SDS011;35409;48.776;9.204;2022-11-06T12:34:01;6.72;;;4.90;;
49502;SDS011;35409;48.776;9.204;2022-11-06T12:36:31;4.63;;;4.22;;
49502;SDS011;35409;48.776;9.204;2022-11-06T12:39:05;4.38;;;3.72;;
49502;SDS011;35409;48.776;9.204;2022-11-06T12:41:38;5.68;;;4.28;;
49502;SDS011;35409;48.776;9.204;2022-11-06T12:44:08;5.82;;;4.47;;
49502;SDS011;35409;48.776;9.204;2022-11-06T12:57:53;3.58;;;3.00;;
49502;SDS011;35409;48.776;9.204;2022-11-06T13:03:18;3.80;;;3.50;;
49502;SDS011;35409;48.776;9.204;2022-11-06T13:05:55;4.22;;;3.72;;
49502;SDS011;35409;48.776;9.204;2022-11-06T13:11:24;4.57;;;3.55;;
49502;SDS011;35409;48.776;9.204;2022-11-06T13:14:13;3.80;;;3.40;;
49502;SDS011;35409;48.776;9.204;2022-11-06T13:16:56;3.67;;;3.03;;
49502;SDS011;35409;48.776;9.204;2022-11-06T13:22:41;4.03;;;3.40;;
49502;SDS011;35409;48.776;9.204;2022-11-06T13:28:24;4.38;;;3.50;;
49502;SDS011;35409;48.776;9.204;2022-11-06T13:30:57;4.93;;;3.33;;
49502;SDS011;35409;48.776;9.204;2022-11-06T13:33:41;3.27;;;2.97;;
49502;SDS011;35409;48.776;9.204;2022-11-06T13:36:12;3.13;;;2.83;;
49502;SDS011;35409;48.776;9.204;2022-11-06T13:38:46;3.90;;;3.13;;
49502;SDS011;35409;48.776;9.204;2022-11-06T13:41:14;5.13;;;3.70;;
49502;SDS011;35409;48.776;9.204;2022-11-06T13:44:08;3.40;;;2.90;;
49502;SDS011;35409;48.776;9.204;2022-11-06T13:49:31;4.50;;;3.03;;
49502;SDS011;35409;48.776;9.204;2022-11-06T13:52:01;4.68;;;3.95;;
49502;SDS011;35409;48.776;9.204;2022-11-06T14:08:19;3.95;;;3.08;;
49502;SDS011;35409;48.776;9.204;2022-11-06T14:10:50;3.80;;;3.30;;
49502;SDS011;35409;48.776;9.204;2022-11-06T14:13:30;3.72;;;3.13;;
49502;SDS011;35409;48.776;9.204;2022-11-06T14:18:57;4.95;;;3.72;;
49502;SDS011;35409;48.776;9.204;2022-11-06T14:26:43;5.32;;;3.63;;
49502;SDS011;35409;48.776;9.204;2022-11-06T14:34:31;4.20;;;3.45;;
49502;SDS011;35409;48.776;9.204;2022-11-06T14:36:58;4.47;;;3.83;;
49502;SDS011;35409;48.776;9.204;2022-11-06T14:42:28;4.57;;;3.30;;
49502;SDS011;35409;48.776;9.204;2022-11-06T14:45:00;4.55;;;3.22;;
49502;SDS011;35409;48.776;9.204;2022-11-06T14:47:37;3.50;;;3.03;;
49502;SDS011;35409;48.776;9.204;2022-11-06T14:50:22;4.07;;;3.67;;
49502;SDS011;35409;48.776;9.204;2022-11-06T14:53:12;5.32;;;4.30;;
49502;SDS011;35409;48.776;9.204;2022-11-06T14:55:55;4.35;;;3.53;;
49502;SDS011;35409;48.776;9.204;2022-11-06T14:58:33;4.07;;;3.30;;
49502;SDS011;35409;48.776;9.204;2022-11-06T15:03:37;2.88;;;2.58;;
49502;SDS011;35409;48.776;9.204;2022-11-06T15:13:55;3.15;;;2.72;;
49502;SDS011;35409;48.776;9.204;2022-11-06T15:19:17;3.88;;;3.13;;
49502;SDS011;35409;48.776;9.204;2022-11-06T15:24:40;4.25;;;3.50;;
49502;SDS011;35409;48.776;9.204;2022-11-06T15:27:19;4.53;;;3.70;;
49502;SDS011;35409;48.776;9.204;2022-11-06T15:29:53;4.88;;;3.92;;
49502;SDS011;35409;48.776;9.204;2022-11-06T15:32:26;4.10;;;3.60;;
49502;SDS011;35409;48.776;9.204;2022-11-06T15:35:40;5.03;;;4.03;;
49502;SDS011;35409;48.776;9.204;2022-11-06T15:37:46;6.20;;;4.53;;
49502;SDS011;35409;48.776;9.204;2022-11-06T15:43:00;5.00;;;4.05;;
49502;SDS011;35409;48.776;9.204;2022-11-06T15:45:30;6.05;;;4.30;;
49502;SDS011;35409;48.776;9.204;2022-11-06T15:48:00;5.75;;;4.68;;
49502;SDS011;35409;48.776;9.204;2022-11-06T15:50:29;6.63;;;4.95;;
49502;SDS011;35409;48.776;9.204;2022-11-06T15:55:43;4.78;;;4.07;;
49502;SDS011;35409;48.776;9.204;2022-11-06T16:00:40;7.82;;;5.90;;
49502;SDS011;35409;48.776;9.204;2022-11-06T16:03:08;8.73;;;4.95;;
49502;SDS011;35409;48.776;9.204;2022-11-06T16:05:37;5.05;;;4.50;;
49502;SDS011;35409;48.776;9.204;2022-11-06T16:08:06;6.55;;;4.90;;
49502;SDS011;35409;48.776;9.204;2022-11-06T16:10:33;6.45;;;5.20;;
49502;SDS011;35409;48.776;9.204;2022-11-06T16:13:01;7.95;;;4.85;;
49502;SDS011;35409;48.776;9.204;2022-11-06T16:20:49;7.22;;;5.07;;
49502;SDS011;35409;48.776;9.204;2022-11-06T16:23:22;5.82;;;4.68;;
49502;SDS011;35409;48.776;9.204;2022-11-06T16:25:55;7.00;;;5.35;;
49502;SDS011;35409;48.776;9.204;2022-11-06T16:28:26;5.72;;;4.90;;
49502;SDS011;35409;48.776;9.204;2022-11-06T16:31:03;6.70;;;5.10;;
49502;SDS011;35409;48.776;9.204;2022-11-06T16:33:32;8.63;;;5.43;;
49502;SDS011;35409;48.776;9.204;2022-11-06T16:36:05;7.10;;;5.05;;
49502;SDS011;35409;48.776;9.204;2022-11-06T16:38:35;9.65;;;6.60;;
49502;SDS011;35409;48.776;9.204;2022-11-06T16:41:01;8.43;;;6.07;;
49502;SDS011;35409;48.776;9.204;2022-11-06T16:43:27;8.35;;;6.10;;
49502;SDS011;35409;48.776;9.204;2022-11-06T16:45:57;8.45;;;5.68;;
49502;SDS011;35409;48.776;9.204;2022-11-06T16:50:56;8.93;;;6.03;;
49502;SDS011;35409;48.776;9.204;2022-11-06T16:53:25;8.38;;;5.97;;
49502;SDS011;35409;48.776;9.204;2022-11-06T16:58:23;8.50;;;6.07;;
49502;SDS011;35409;48.776;9.204;2022-11-06T17:01:02;8.13;;;6.35;;
49502;SDS011;35409;48.776;9.204;2022-11-06T17:06:01;10.38;;;7.30;;
49502;SDS011;35409;48.776;9.204;2022-11-06T17:08:35;11.10;;;7.85;;
49502;SDS011;35409;48.776;9.204;2022-11-06T17:13:36;11.35;;;8.30;;
49502;SDS011;35409;48.776;9.204;2022-11-06T17:16:04;10.77;;;8.10;;
49502;SDS011;35409;48.776;9.204;2022-11-06T17:18:35;11.93;;;8.15;;
49502;SDS011;35409;48.776;9.204;2022-11-06T17:21:04;14.63;;;9.35;;
49502;SDS011;35409;48.776;9.204;2022-11-06T17:23:32;11.65;;;8.35;;
49502;SDS011;35409;48.776;9.204;2022-11-06T17:26:00;10.65;;;7.65;;
49502;SDS011;35409;48.776;9.204;2022-11-06T17:28:39;9.18;;;7.28;;
49502;SDS011;35409;48.776;9.204;2022-11-06T17:31:04;9.55;;;7.35;;
49502;SDS011;35409;48.776;9.204;2022-11-06T17:33:33;9.95;;;7.35;;
49502;SDS011;35409;48.776;9.204;2022-11-06T17:35:59;11.20;;;7.20;;
49502;SDS011;35409;48.776;9.204;2022-11-06T17:38:25;8.80;;;6.95;;